Time;durP1;ratioP1;P1;durP2;ratioP2;P2;SDS_P1;SDS_P2;PMS_P1;PMS_P2;Temp;Humidity;BMP_temperature;BMP_pressure;BME280_temperature;BME280_humidity;BME280_pressure;Samples;Min_cycle;Max_cycle;Signal;HPM_P1;HPM_P2
2022/01/29 00:02:18;;;;;;;13.35;8.27;;;2.40;99.90;;;;;;5065359;28;20040;-72
2022/01/29 00:04:46;;;;;;;15.57;8.52;;;2.50;99.90;;;;;;5086250;28;20107;-72
2022/01/29 00:07:12;;;;;;;21.25;9.88;;;2.40;99.90;;;;;;5068985;28;20604;-72
2022/01/29 00:09:38;;;;;;;17.52;10.48;;;2.40;99.90;;;;;;5069916;28;20024;-72
2022/01/29 00:12:04;;;;;;;13.00;8.30;;;2.50;99.90;;;;;;5071913;28;20161;-72
2022/01/29 00:14:30;;;;;;;14.93;9.32;;;2.50;99.90;;;;;;5070909;28;20038;-72
2022/01/29 00:16:56;;;;;;;22.63;10.15;;;2.50;99.90;;;;;;5077434;28;20029;-72
2022/01/29 00:19:22;;;;;;;16.90;9.07;;;2.50;99.90;;;;;;5069048;28;20496;-72
2022/01/29 00:21:47;;;;;;;17.10;8.68;;;2.50;99.90;;;;;;5065256;28;20385;-72
2022/01/29 00:24:13;;;;;;;18.48;9.90;;;2.50;99.90;;;;;;5083237;28;20028;-72
2022/01/29 00:26:39;;;;;;;15.95;8.95;;;2.50;99.90;;;;;;5075274;28;20024;-72
2022/01/29 00:29:10;;;;;;;13.55;8.25;;;2.50;99.90;;;;;;5066142;28;20040;-72
2022/01/29 00:31:36;;;;;;;15.88;7.95;;;2.50;99.90;;;;;;5084765;28;20032;-72
2022/01/29 00:34:02;;;;;;;13.65;7.47;;;2.60;99.90;;;;;;5073986;28;20036;-72
2022/01/29 00:36:27;;;;;;;14.80;7.78;;;2.60;99.90;;;;;;5077496;28;20028;-72
2022/01/29 00:38:53;;;;;;;15.32;6.95;;;2.70;99.90;;;;;;5066822;28;20039;-72
2022/01/29 00:41:18;;;;;;;14.02;7.15;;;2.70;99.90;;;;;;5090048;28;20060;-72
2022/01/29 00:43:44;;;;;;;12.63;7.10;;;2.70;99.90;;;;;;5065102;28;20038;-72
2022/01/29 00:46:10;;;;;;;13.52;7.28;;;2.70;99.90;;;;;;5071810;28;20028;-72
2022/01/29 00:48:35;;;;;;;14.65;6.80;;;2.70;99.90;;;;;;5055133;28;20052;-72
2022/01/29 00:51:02;;;;;;;12.30;7.00;;;2.70;99.90;;;;;;5065085;28;20033;-72
2022/01/29 00:53:27;;;;;;;14.10;6.57;;;2.70;99.90;;;;;;5086145;28;20031;-72
2022/01/29 00:55:53;;;;;;;11.60;6.93;;;2.80;99.90;;;;;;5067132;28;20025;-72
2022/01/29 00:58:19;;;;;;;10.18;6.55;;;2.70;99.90;;;;;;5082740;28;20417;-72
2022/01/29 01:00:46;;;;;;;12.48;6.75;;;2.70;99.90;;;;;;5075571;28;20025;-72
2022/01/29 01:03:12;;;;;;;12.30;6.60;;;2.70;99.90;;;;;;5088226;28;20025;-72
2022/01/29 01:05:37;;;;;;;16.27;7.10;;;2.70;99.90;;;;;;5077923;28;20023;-72
2022/01/29 01:08:03;;;;;;;13.10;6.43;;;2.60;99.90;;;;;;5085702;28;20031;-72
2022/01/29 01:10:29;;;;;;;14.35;6.72;;;2.60;99.90;;;;;;5081147;28;20055;-72
2022/01/29 01:12:54;;;;;;;12.00;7.43;;;2.60;99.90;;;;;;5090946;28;20032;-72
2022/01/29 01:15:20;;;;;;;11.68;6.70;;;2.60;99.90;;;;;;5079700;28;20116;-72
2022/01/29 01:17:45;;;;;;;10.73;6.85;;;2.70;99.90;;;;;;5086774;28;20025;-73
2022/01/29 01:20:11;;;;;;;9.77;6.07;;;2.60;99.90;;;;;;5085744;28;20464;-73
2022/01/29 01:22:37;;;;;;;12.25;6.65;;;2.60;99.90;;;;;;5094526;28;20354;-72
2022/01/29 01:25:03;;;;;;;12.50;6.15;;;2.60;99.90;;;;;;5090979;28;20026;-72
2022/01/29 01:27:29;;;;;;;16.27;6.68;;;2.60;99.90;;;;;;5079408;28;20477;-72
2022/01/29 01:29:54;;;;;;;10.93;6.07;;;2.60;99.90;;;;;;5083686;28;20459;-72
2022/01/29 01:32:20;;;;;;;9.88;6.15;;;2.60;99.90;;;;;;5073184;28;20456;-72
2022/01/29 01:34:50;;;;;;;14.80;6.32;;;2.60;99.90;;;;;;5073872;28;20480;-72
2022/01/29 01:37:31;;;;;;;10.77;6.55;;;2.50;99.90;;;;;;5070210;28;20439;-72
2022/01/29 01:39:57;;;;;;;11.88;6.32;;;2.50;99.90;;;;;;5081121;28;20032;-72
2022/01/29 01:42:23;;;;;;;11.30;5.75;;;2.50;99.90;;;;;;5064942;28;20384;-72
2022/01/29 01:44:49;;;;;;;11.80;6.22;;;2.40;99.90;;;;;;5083879;28;20037;-72
2022/01/29 01:47:16;;;;;;;10.18;6.45;;;2.40;99.90;;;;;;5090825;28;20032;-72
2022/01/29 01:49:43;;;;;;;11.07;5.82;;;2.40;99.90;;;;;;5080421;28;20067;-72
2022/01/29 01:52:11;;;;;;;11.10;5.72;;;2.40;99.90;;;;;;5079813;28;20488;-72
2022/01/29 01:54:38;;;;;;;10.77;6.53;;;2.40;99.90;;;;;;5073565;28;20107;-72
2022/01/29 01:57:04;;;;;;;10.32;5.85;;;2.30;99.90;;;;;;5087983;28;20044;-72
2022/01/29 01:59:31;;;;;;;11.25;5.82;;;2.30;99.90;;;;;;5092818;28;20028;-72
2022/01/29 02:01:57;;;;;;;10.35;5.68;;;2.30;99.90;;;;;;5080511;28;20396;-72
2022/01/29 02:04:22;;;;;;;10.25;6.38;;;2.30;99.90;;;;;;5078755;28;20024;-72
2022/01/29 02:06:50;;;;;;;12.77;6.18;;;2.20;99.90;;;;;;5087886;28;20035;-72
2022/01/29 02:09:17;;;;;;;14.95;6.47;;;2.20;99.90;;;;;;5069681;28;20036;-72
2022/01/29 02:11:54;;;;;;;11.70;6.07;;;2.10;99.90;;;;;;5084371;28;20419;-72
2022/01/29 02:14:24;;;;;;;7.55;5.20;;;2.10;99.90;;;;;;5079982;28;20236;-72
2022/01/29 02:16:50;;;;;;;12.20;6.45;;;2.00;99.90;;;;;;5076214;28;20035;-72
2022/01/29 02:19:16;;;;;;;11.43;6.63;;;2.00;99.90;;;;;;5087603;28;20029;-72
2022/01/29 02:21:42;;;;;;;10.60;6.07;;;2.00;99.90;;;;;;5069024;28;20028;-72
2022/01/29 02:24:08;;;;;;;11.75;6.32;;;2.00;99.90;;;;;;5083614;28;20243;-72
2022/01/29 02:26:34;;;;;;;13.27;6.82;;;2.00;99.90;;;;;;5083911;28;20031;-73
2022/01/29 02:29:00;;;;;;;8.35;5.88;;;2.00;99.90;;;;;;5076177;28;20072;-73
2022/01/29 02:31:25;;;;;;;10.40;5.97;;;2.00;99.90;;;;;;5082469;28;20083;-73
2022/01/29 02:33:51;;;;;;;10.15;5.85;;;2.00;99.90;;;;;;5083573;28;20453;-73
2022/01/29 02:36:17;;;;;;;8.98;5.18;;;1.90;99.90;;;;;;5080928;28;20036;-73
2022/01/29 02:38:43;;;;;;;14.57;6.03;;;1.90;99.90;;;;;;5071722;28;20033;-73
2022/01/29 02:41:08;;;;;;;10.90;5.90;;;1.90;99.90;;;;;;5089088;28;20020;-73
2022/01/29 02:43:44;;;;;;;11.15;6.05;;;1.90;99.90;;;;;;5062185;28;20028;-73
2022/01/29 02:46:21;;;;;;;11.20;5.57;;;1.80;99.90;;;;;;5078182;28;20047;-73
2022/01/29 02:48:52;;;;;;;8.70;5.43;;;1.80;99.90;;;;;;5080562;28;20103;-73
2022/01/29 02:51:19;;;;;;;16.10;6.60;;;1.70;99.90;;;;;;5088782;28;20028;-74
2022/01/29 02:53:45;;;;;;;10.88;6.20;;;1.70;99.90;;;;;;5072890;28;20028;-73
2022/01/29 02:56:10;;;;;;;11.63;6.30;;;1.70;99.90;;;;;;5084424;28;20028;-73
2022/01/29 02:58:37;;;;;;;16.20;6.20;;;1.60;99.90;;;;;;5074624;28;20085;-73
2022/01/29 03:01:04;;;;;;;8.32;5.43;;;1.60;99.90;;;;;;5084464;28;20033;-74
2022/01/29 03:03:30;;;;;;;11.77;6.60;;;1.50;99.90;;;;;;5086821;28;20082;-73
2022/01/29 03:05:55;;;;;;;10.05;5.90;;;1.50;99.90;;;;;;5076400;28;20103;-73
2022/01/29 03:08:21;;;;;;;11.65;5.82;;;1.40;99.90;;;;;;5079414;28;20108;-73
2022/01/29 03:10:47;;;;;;;12.32;6.10;;;1.40;99.90;;;;;;5089244;28;20024;-73
2022/01/29 03:13:13;;;;;;;8.98;5.60;;;1.40;99.90;;;;;;5075644;28;20400;-73
2022/01/29 03:15:39;;;;;;;10.70;5.82;;;1.30;99.90;;;;;;5085392;28;20066;-73
2022/01/29 03:18:05;;;;;;;12.55;6.22;;;1.30;99.90;;;;;;5082507;28;20032;-73
2022/01/29 03:20:30;;;;;;;11.10;5.65;;;1.30;99.90;;;;;;5068483;28;20036;-73
2022/01/29 03:22:57;;;;;;;9.35;5.93;;;1.30;99.90;;;;;;5075695;28;20067;-73
2022/01/29 03:25:23;;;;;;;10.10;5.75;;;1.30;99.90;;;;;;5085849;28;20047;-73
2022/01/29 03:27:49;;;;;;;10.30;6.00;;;1.30;99.90;;;;;;5073606;28;20063;-73
2022/01/29 03:30:14;;;;;;;10.55;5.55;;;1.30;99.90;;;;;;5078966;28;20053;-73
2022/01/29 03:32:40;;;;;;;9.75;5.43;;;1.30;99.90;;;;;;5066261;28;20044;-73
2022/01/29 03:35:06;;;;;;;9.45;5.30;;;1.30;99.90;;;;;;5076903;28;20031;-73
2022/01/29 03:37:33;;;;;;;11.82;6.13;;;1.20;99.90;;;;;;5068505;28;20028;-73
2022/01/29 03:40:02;;;;;;;12.85;6.03;;;1.30;99.90;;;;;;5080722;28;20030;-73
2022/01/29 03:42:31;;;;;;;14.23;7.32;;;1.30;99.90;;;;;;5068455;28;20032;-73
2022/01/29 03:44:57;;;;;;;13.85;6.40;;;1.30;99.90;;;;;;5085799;28;20047;-73
2022/01/29 03:47:23;;;;;;;13.45;7.47;;;1.40;99.90;;;;;;5069073;28;20020;-73
2022/01/29 03:49:50;;;;;;;12.40;6.25;;;1.40;99.90;;;;;;5077972;28;20031;-73
2022/01/29 03:52:16;;;;;;;15.20;6.88;;;1.40;99.90;;;;;;5083798;28;20496;-73
2022/01/29 03:54:43;;;;;;;12.18;5.13;;;1.40;99.90;;;;;;5075596;28;20392;-73
2022/01/29 03:57:09;;;;;;;12.55;6.05;;;1.40;99.90;;;;;;5087993;28;20077;-73
2022/01/29 03:59:34;;;;;;;11.57;5.95;;;1.40;99.90;;;;;;5078765;28;20028;-73
2022/01/29 04:02:00;;;;;;;9.43;5.38;;;1.50;99.90;;;;;;5080978;28;20036;-73
2022/01/29 04:04:25;;;;;;;9.88;5.38;;;1.50;99.90;;;;;;5085892;28;20153;-73
2022/01/29 04:06:51;;;;;;;9.13;4.88;;;1.50;99.90;;;;;;5074399;28;20451;-73
2022/01/29 04:09:19;;;;;;;11.70;5.88;;;1.60;99.90;;;;;;5087201;28;20024;-73
2022/01/29 04:11:44;;;;;;;9.52;4.75;;;1.60;99.90;;;;;;5079913;28;20169;-73
2022/01/29 04:14:17;;;;;;;6.70;4.38;;;1.60;99.90;;;;;;5079111;28;20112;-73
2022/01/29 04:16:44;;;;;;;9.68;5.20;;;1.60;99.90;;;;;;5088019;28;20020;-73
2022/01/29 04:19:09;;;;;;;10.38;5.78;;;1.60;99.90;;;;;;5074054;28;20491;-73
2022/01/29 04:21:35;;;;;;;8.90;5.45;;;1.70;99.90;;;;;;5084149;28;20031;-73
2022/01/29 04:24:01;;;;;;;12.10;5.35;;;1.70;99.90;;;;;;5073451;28;20028;-73
2022/01/29 04:26:26;;;;;;;10.95;4.90;;;1.60;99.90;;;;;;5082296;28;20111;-73
2022/01/29 04:28:53;;;;;;;8.93;4.95;;;1.70;99.90;;;;;;5076847;28;20040;-73
2022/01/29 04:31:21;;;;;;;8.48;3.58;;;1.70;99.90;;;;;;5073895;28;20036;-73
2022/01/29 04:33:47;;;;;;;7.93;3.90;;;1.80;99.90;;;;;;5077699;28;20028;-73
2022/01/29 04:36:13;;;;;;;8.27;4.30;;;1.80;99.90;;;;;;5085133;28;20020;-73
2022/01/29 04:38:38;;;;;;;6.45;3.53;;;1.80;99.90;;;;;;5086441;28;20038;-73
2022/01/29 04:41:05;;;;;;;9.35;4.13;;;1.80;99.90;;;;;;5070838;28;20028;-73
2022/01/29 04:43:32;;;;;;;9.52;4.03;;;1.80;99.90;;;;;;5067279;28;20030;-73
2022/01/29 04:45:58;;;;;;;5.57;3.78;;;1.80;99.90;;;;;;5085113;28;20032;-73
2022/01/29 04:48:24;;;;;;;10.93;4.05;;;1.80;99.90;;;;;;5083189;28;20528;-73
2022/01/29 04:50:50;;;;;;;8.30;3.92;;;1.80;99.90;;;;;;5075306;28;20389;-73
2022/01/29 04:53:15;;;;;;;9.50;3.85;;;1.80;99.90;;;;;;5089379;28;20379;-73
2022/01/29 04:55:41;;;;;;;11.65;4.10;;;1.80;99.90;;;;;;5087592;28;20035;-73
2022/01/29 04:58:07;;;;;;;6.68;3.38;;;1.80;99.90;;;;;;5084286;28;20024;-74
2022/01/29 05:00:35;;;;;;;7.53;4.10;;;1.90;99.90;;;;;;5081686;28;20024;-73
2022/01/29 05:03:09;;;;;;;7.35;3.63;;;2.00;99.90;;;;;;5091288;28;20032;-73
2022/01/29 05:05:35;;;;;;;6.88;3.30;;;2.10;99.90;;;;;;5074962;28;20036;-74
2022/01/29 05:08:01;;;;;;;8.20;3.38;;;2.10;99.90;;;;;;5084958;28;20016;-73
2022/01/29 05:10:27;;;;;;;7.47;3.00;;;2.20;99.90;;;;;;5080997;28;20484;-73
2022/01/29 05:13:01;;;;;;;6.57;3.50;;;2.20;99.90;;;;;;5091181;28;20456;-73
2022/01/29 05:15:39;;;;;;;10.75;5.30;;;2.40;99.90;;;;;;5080914;28;20028;-73
2022/01/29 05:29:04;;;;;;;13.60;7.93;;;2.40;99.90;;;;;;5089126;28;20549;-73
2022/01/29 05:31:30;;;;;;;15.98;8.45;;;2.30;99.90;;;;;;5080330;28;20115;-73
2022/01/29 05:33:56;;;;;;;12.27;8.27;;;2.20;99.90;;;;;;5083634;28;20066;-73
2022/01/29 05:36:22;;;;;;;14.68;8.63;;;2.10;99.90;;;;;;5074779;28;20032;-73
2022/01/29 05:38:47;;;;;;;13.95;9.13;;;2.10;99.90;;;;;;5074520;28;20036;-74
2022/01/29 05:41:13;;;;;;;18.05;8.73;;;2.10;99.90;;;;;;5078060;28;20406;-72
2022/01/29 05:43:39;;;;;;;20.33;9.65;;;2.00;99.90;;;;;;5075373;28;20055;-72
2022/01/29 05:46:04;;;;;;;15.75;10.00;;;2.00;99.90;;;;;;5080332;28;20036;-73
2022/01/29 05:48:30;;;;;;;17.17;9.55;;;2.00;99.90;;;;;;5069505;28;20458;-74
2022/01/29 05:50:56;;;;;;;17.02;9.45;;;2.00;99.90;;;;;;5083602;28;20020;-73
2022/01/29 05:53:22;;;;;;;16.73;9.50;;;1.90;99.90;;;;;;5067904;28;20514;-72
2022/01/29 05:55:47;;;;;;;15.88;9.02;;;2.00;99.90;;;;;;5084826;28;20024;-72
2022/01/29 05:58:13;;;;;;;17.73;10.43;;;1.90;99.90;;;;;;5082867;28;20032;-73
2022/01/29 06:00:39;;;;;;;21.35;10.07;;;1.90;99.90;;;;;;5076580;28;20025;-74
2022/01/29 06:03:06;;;;;;;21.60;12.27;;;1.90;99.90;;;;;;5064343;28;20118;-73
2022/01/29 06:05:32;;;;;;;20.33;11.45;;;1.80;99.90;;;;;;5075872;28;20081;-73
2022/01/29 06:07:57;;;;;;;22.88;12.60;;;1.80;99.90;;;;;;5079812;28;20058;-73
2022/01/29 06:10:24;;;;;;;18.95;12.30;;;1.80;99.90;;;;;;5079263;28;20024;-73
2022/01/29 06:13:08;;;;;;;20.92;12.90;;;1.80;99.90;;;;;;5061310;28;20359;-73
2022/01/29 06:15:40;;;;;;;24.92;12.35;;;1.70;99.90;;;;;;5085279;28;20393;-73
2022/01/29 06:18:07;;;;;;;19.67;12.13;;;1.80;99.90;;;;;;5074664;28;20024;-73
2022/01/29 06:20:33;;;;;;;25.92;13.73;;;1.80;99.90;;;;;;5068100;28;20041;-72
2022/01/29 06:22:59;;;;;;;30.35;14.25;;;1.80;99.90;;;;;;5062916;28;20075;-71
2022/01/29 06:25:25;;;;;;;23.15;13.88;;;1.80;99.90;;;;;;5077235;28;20024;-71
2022/01/29 06:27:50;;;;;;;24.17;13.82;;;1.70;99.90;;;;;;5083397;28;20082;-71
2022/01/29 06:30:16;;;;;;;24.02;14.05;;;1.70;99.90;;;;;;5078923;28;20505;-70
2022/01/29 06:32:43;;;;;;;26.63;14.75;;;1.70;99.90;;;;;;5087480;28;20040;-70
2022/01/29 06:35:09;;;;;;;27.90;14.52;;;1.60;99.90;;;;;;5065127;28;20038;-68
2022/01/29 06:37:35;;;;;;;28.85;15.82;;;1.60;99.90;;;;;;5065758;28;20024;-70
2022/01/29 06:40:01;;;;;;;27.58;15.45;;;1.60;99.90;;;;;;5070102;28;20051;-70
2022/01/29 06:42:27;;;;;;;24.58;14.05;;;1.60;99.90;;;;;;5074287;28;20409;-69
2022/01/29 06:44:52;;;;;;;24.58;13.88;;;1.60;99.90;;;;;;5088234;28;20043;-70
2022/01/29 06:47:18;;;;;;;26.73;14.20;;;1.60;99.90;;;;;;5065843;28;20028;-69
2022/01/29 06:49:43;;;;;;;25.90;14.65;;;1.60;99.90;;;;;;5083087;28;20027;-69
2022/01/29 06:52:09;;;;;;;25.27;13.85;;;1.60;99.90;;;;;;5085074;28;20123;-69
2022/01/29 06:54:35;;;;;;;21.63;12.57;;;1.60;99.90;;;;;;5077391;28;20472;-70
2022/01/29 06:57:00;;;;;;;25.38;13.82;;;1.70;99.90;;;;;;5073387;28;20359;-70
2022/01/29 06:59:26;;;;;;;25.77;14.60;;;1.60;99.90;;;;;;5086850;28;20032;-74
2022/01/29 07:01:52;;;;;;;23.92;13.50;;;1.60;99.90;;;;;;5080914;28;20032;-70
2022/01/29 07:04:17;;;;;;;27.05;14.80;;;1.60;99.90;;;;;;5079221;28;20059;-70
2022/01/29 07:06:43;;;;;;;23.85;14.25;;;1.60;99.90;;;;;;5083095;28;20043;-69
2022/01/29 07:09:09;;;;;;;21.90;13.48;;;1.70;99.90;;;;;;5074321;28;20077;-70
2022/01/29 07:11:35;;;;;;;24.73;13.95;;;1.60;99.90;;;;;;5085095;28;20040;-70
2022/01/29 07:14:02;;;;;;;26.30;14.13;;;1.60;99.90;;;;;;5079941;28;20103;-70
2022/01/29 07:16:32;;;;;;;26.73;15.70;;;1.70;99.90;;;;;;5067194;28;20085;-71
2022/01/29 07:18:58;;;;;;;27.90;14.30;;;1.70;99.90;;;;;;5068098;28;20043;-71
2022/01/29 07:21:24;;;;;;;26.95;13.73;;;1.70;99.90;;;;;;5060871;28;20024;-70
2022/01/29 07:23:50;;;;;;;20.13;12.82;;;1.80;99.90;;;;;;5070910;28;20052;-71
2022/01/29 07:26:16;;;;;;;26.13;13.82;;;1.80;99.90;;;;;;5070334;28;20027;-71
2022/01/29 07:28:42;;;;;;;21.05;12.00;;;1.90;99.90;;;;;;5065747;28;20123;-70
2022/01/29 07:31:07;;;;;;;20.67;12.23;;;1.90;99.90;;;;;;5068630;28;20533;-73
2022/01/29 07:33:33;;;;;;;20.73;11.80;;;2.00;99.90;;;;;;5066486;28;20028;-75
2022/01/29 07:35:59;;;;;;;17.00;9.95;;;1.90;99.90;;;;;;5069494;28;20113;-72
2022/01/29 07:38:25;;;;;;;19.73;9.98;;;1.90;99.90;;;;;;5068292;28;20657;-70
2022/01/29 07:40:51;;;;;;;17.55;9.32;;;2.00;99.90;;;;;;5066474;28;20036;-67
2022/01/29 07:43:17;;;;;;;10.55;7.03;;;2.00;99.90;;;;;;5068615;28;20020;-67
2022/01/29 07:45:43;;;;;;;10.68;6.07;;;2.10;99.90;;;;;;5068166;28;20115;-68
2022/01/29 07:48:08;;;;;;;12.43;6.40;;;2.10;99.90;;;;;;5068251;28;20127;-68
2022/01/29 07:50:34;;;;;;;8.45;4.65;;;2.20;99.90;;;;;;5065646;28;20032;-68
2022/01/29 07:53:00;;;;;;;8.07;5.10;;;2.20;99.90;;;;;;5068017;28;20144;-66
2022/01/29 07:55:27;;;;;;;7.57;4.63;;;2.30;99.90;;;;;;5065023;28;20036;-67
2022/01/29 07:57:53;;;;;;;10.35;5.10;;;2.30;99.90;;;;;;5066607;28;20022;-67
2022/01/29 08:00:18;;;;;;;6.47;3.70;;;2.50;99.90;;;;;;5068626;28;20039;-67
2022/01/29 08:02:44;;;;;;;7.10;3.30;;;2.60;99.90;;;;;;5064357;28;20111;-68
2022/01/29 08:05:10;;;;;;;7.53;3.58;;;2.70;99.90;;;;;;5064616;28;20182;-68
2022/01/29 08:07:36;;;;;;;9.80;4.30;;;2.80;99.90;;;;;;5063171;28;20100;-68
2022/01/29 08:10:02;;;;;;;8.43;4.65;;;2.90;99.90;;;;;;5063020;28;20763;-68
2022/01/29 08:12:27;;;;;;;6.32;3.28;;;3.00;99.90;;;;;;5065008;28;20040;-68
2022/01/29 08:14:53;;;;;;;7.75;2.95;;;3.00;99.90;;;;;;5068377;28;20033;-65
2022/01/29 08:17:19;;;;;;;6.53;3.65;;;3.10;99.90;;;;;;5068893;28;20075;-73
2022/01/29 08:19:44;;;;;;;5.65;2.30;;;3.20;99.90;;;;;;5065595;28;20115;-73
2022/01/29 08:22:10;;;;;;;4.35;2.80;;;3.30;99.90;;;;;;5063163;28;20024;-75
2022/01/29 08:24:36;;;;;;;8.15;3.17;;;3.40;99.90;;;;;;5069487;28;20453;-72
2022/01/29 08:27:01;;;;;;;5.35;2.90;;;3.50;99.90;;;;;;5068321;28;20140;-74
2022/01/29 08:29:27;;;;;;;5.07;2.55;;;3.70;99.90;;;;;;5068691;28;20063;-78
2022/01/29 08:31:53;;;;;;;4.10;2.55;;;3.70;99.90;;;;;;5064731;28;20037;-73
2022/01/29 08:34:19;;;;;;;5.68;3.13;;;3.70;99.90;;;;;;5064558;28;20107;-76
2022/01/29 08:36:44;;;;;;;4.05;2.72;;;3.80;99.90;;;;;;5054687;28;20086;-71
2022/01/29 08:39:10;;;;;;;7.07;2.92;;;3.90;99.90;;;;;;5066748;28;20028;-76
2022/01/29 08:41:36;;;;;;;5.63;3.03;;;4.00;99.90;;;;;;5064242;28;20039;-85
2022/01/29 08:44:02;;;;;;;5.15;2.95;;;4.10;99.90;;;;;;5067553;28;20036;-78
2022/01/29 08:46:27;;;;;;;9.07;3.22;;;4.30;99.90;;;;;;5068764;28;20125;-80
2022/01/29 08:48:53;;;;;;;7.55;3.38;;;4.40;99.90;;;;;;5067919;28;20099;-78
2022/01/29 08:51:18;;;;;;;5.65;2.80;;;4.50;99.90;;;;;;5068524;28;20037;-80
2022/01/29 08:53:44;;;;;;;4.07;3.28;;;4.60;99.90;;;;;;5068313;28;20032;-78
2022/01/29 08:56:10;;;;;;;5.82;3.40;;;4.70;99.90;;;;;;5067290;28;20023;-77
2022/01/29 08:58:36;;;;;;;5.72;3.40;;;4.70;99.90;;;;;;5068319;28;20051;-77
2022/01/29 09:01:07;;;;;;;4.25;2.97;;;4.70;99.90;;;;;;5071567;28;20106;-74
2022/01/29 09:03:33;;;;;;;4.75;2.85;;;4.90;99.90;;;;;;5068780;28;20084;-74
2022/01/29 09:05:58;;;;;;;5.88;2.90;;;5.00;99.90;;;;;;5069945;28;20525;-78
2022/01/29 09:08:24;;;;;;;8.18;3.75;;;5.00;99.90;;;;;;5070632;28;20126;-80
2022/01/29 09:10:51;;;;;;;7.80;4.82;;;5.00;99.90;;;;;;5071678;28;20416;-75
2022/01/29 09:13:17;;;;;;;6.30;3.53;;;5.00;99.90;;;;;;5070713;28;20446;-80
2022/01/29 09:15:43;;;;;;;9.63;4.65;;;5.00;99.90;;;;;;5070630;28;20027;-78
2022/01/29 09:18:09;;;;;;;5.47;4.00;;;5.10;99.90;;;;;;5070070;28;20828;-78
2022/01/29 09:20:34;;;;;;;9.52;3.75;;;5.10;99.90;;;;;;5071187;28;20100;-78
2022/01/29 09:23:00;;;;;;;5.93;3.88;;;5.10;99.90;;;;;;5071480;28;20078;-83
2022/01/29 09:25:26;;;;;;;10.52;4.30;;;5.10;99.90;;;;;;5068130;28;20082;-81
2022/01/29 09:27:52;;;;;;;7.60;3.88;;;5.10;99.90;;;;;;5067827;28;20111;-74
2022/01/29 09:30:18;;;;;;;7.07;4.18;;;5.20;99.90;;;;;;5071817;28;20127;-81
2022/01/29 09:32:44;;;;;;;7.95;4.18;;;5.20;99.90;;;;;;5073787;28;20064;-85
2022/01/29 09:35:09;;;;;;;6.88;3.92;;;5.30;99.90;;;;;;5079641;28;20470;-84
2022/01/29 09:37:35;;;;;;;6.00;3.70;;;5.40;99.90;;;;;;5077986;28;20032;-76
2022/01/29 09:40:01;;;;;;;6.57;4.22;;;5.40;99.90;;;;;;5071188;28;20029;-75
2022/01/29 09:42:26;;;;;;;5.85;3.67;;;5.50;99.90;;;;;;5070239;28;20427;-80
2022/01/29 09:44:52;;;;;;;5.43;3.42;;;5.60;99.90;;;;;;5087778;28;20039;-75
2022/01/29 09:47:21;;;;;;;8.15;4.43;;;5.80;99.90;;;;;;5063996;28;20025;-71
2022/01/29 09:49:47;;;;;;;12.38;3.80;;;6.00;99.90;;;;;;5092459;28;20430;-72
2022/01/29 09:52:12;;;;;;;6.57;3.60;;;6.10;99.90;;;;;;5075646;28;20029;-74
2022/01/29 09:54:39;;;;;;;6.53;4.00;;;6.20;99.90;;;;;;5071071;28;20371;-69
2022/01/29 09:57:04;;;;;;;6.57;4.03;;;6.30;99.90;;;;;;5072157;28;20040;-76
2022/01/29 09:59:30;;;;;;;7.32;3.45;;;6.30;99.90;;;;;;5071121;28;20044;-74
2022/01/29 10:01:56;;;;;;;4.82;3.47;;;6.40;99.90;;;;;;5066094;28;20047;-72
2022/01/29 10:04:24;;;;;;;6.20;3.90;;;6.60;99.90;;;;;;5075958;28;20080;-76
2022/01/29 10:07:13;;;;;;;5.97;3.70;;;6.50;99.90;;;;;;5059133;28;20043;-70
2022/01/29 10:09:39;;;;;;;5.37;3.57;;;6.70;99.90;;;;;;5070911;28;20482;-70
2022/01/29 10:12:30;;;;;;;6.97;4.03;;;6.80;99.90;;;;;;5079211;28;20373;-69
2022/01/29 10:15:02;;;;;;;5.93;3.78;;;6.80;99.90;;;;;;5075094;28;20032;-71
2022/01/29 10:17:39;;;;;;;5.32;3.92;;;6.80;99.90;;;;;;5072923;28;20036;-70
2022/01/29 10:20:22;;;;;;;6.60;3.90;;;6.80;99.90;;;;;;5073800;28;20469;-70
2022/01/29 10:22:52;;;;;;;9.55;3.67;;;6.80;99.90;;;;;;5075811;28;20036;-69
2022/01/29 10:25:24;;;;;;;5.10;3.50;;;6.80;99.90;;;;;;5080491;28;20100;-69
2022/01/29 10:28:06;;;;;;;6.50;3.45;;;7.00;99.90;;;;;;5062246;28;20036;-68
2022/01/29 10:30:48;;;;;;;5.95;3.38;;;7.00;99.90;;;;;;5080880;28;20044;-72
2022/01/29 10:33:25;;;;;;;7.60;4.13;;;7.10;99.90;;;;;;5065393;28;20028;-75
2022/01/29 10:35:54;;;;;;;5.22;3.42;;;7.00;99.90;;;;;;5079385;28;20089;-74
2022/01/29 10:38:41;;;;;;;5.28;3.70;;;7.10;99.90;;;;;;5067563;28;20043;-74
2022/01/29 10:41:30;;;;;;;6.93;3.97;;;7.20;99.90;;;;;;5073744;28;20394;-80
2022/01/29 10:44:10;;;;;;;7.55;3.72;;;7.20;99.90;;;;;;5079699;28;20413;-70
2022/01/29 10:46:43;;;;;;;;;;;7.20;99.90;;;;;;5080804;28;20028;-71
2022/01/29 10:49:37;;;;;;;4.45;3.30;;;7.30;99.90;;;;;;5059152;28;20013;-72
2022/01/29 10:52:04;;;;;;;11.00;3.75;;;7.20;99.90;;;;;;5063004;28;20048;-68
2022/01/29 10:54:32;;;;;;;5.90;3.63;;;7.30;99.90;;;;;;5081235;28;20034;-70
2022/01/29 10:57:04;;;;;;;8.18;3.92;;;7.40;99.90;;;;;;5073380;28;20074;-68
2022/01/29 10:59:32;;;;;;;6.85;3.60;;;7.40;99.90;;;;;;5078823;28;20101;-67
2022/01/29 11:02:04;;;;;;;5.10;3.47;;;7.40;99.90;;;;;;5081654;28;20042;-66
2022/01/29 11:04:31;;;;;;;5.57;3.67;;;7.40;99.90;;;;;;5086969;28;20107;-66
2022/01/29 11:07:01;;;;;;;6.53;3.67;;;7.40;99.90;;;;;;5069161;28;20366;-68
2022/01/29 11:09:28;;;;;;;9.75;3.22;;;7.50;99.90;;;;;;5080107;28;20460;-67
2022/01/29 11:12:02;;;;;;;4.10;2.95;;;7.50;99.90;;;;;;5082715;28;20032;-66
2022/01/29 11:14:29;;;;;;;3.67;2.58;;;7.60;99.90;;;;;;5078205;28;20033;-66
2022/01/29 11:16:55;;;;;;;5.88;2.53;;;7.60;99.90;;;;;;5088672;28;20028;-67
2022/01/29 11:19:21;;;;;;;6.20;2.38;;;7.60;99.90;;;;;;5077690;28;20095;-67
2022/01/29 11:21:50;;;;;;;7.03;2.17;;;7.50;99.90;;;;;;5082261;28;20417;-67
2022/01/29 11:24:21;;;;;;;4.47;2.17;;;7.50;99.90;;;;;;5083554;28;20227;-67
2022/01/29 11:26:47;;;;;;;3.03;2.00;;;7.50;99.90;;;;;;5089685;28;20035;-66
2022/01/29 11:29:35;;;;;;;3.85;1.98;;;7.50;99.90;;;;;;5075467;28;20048;-70
2022/01/29 11:32:26;;;;;;;2.80;2.13;;;7.50;99.90;;;;;;5072748;28;20447;-68
2022/01/29 11:35:11;;;;;;;4.07;1.92;;;7.50;99.90;;;;;;5074687;28;20044;-69
2022/01/29 11:37:40;;;;;;;3.47;1.65;;;7.50;99.90;;;;;;5065778;28;20044;-68
2022/01/29 11:40:13;;;;;;;5.38;2.50;;;7.50;99.90;;;;;;5077988;28;20024;-67
2022/01/29 11:42:51;;;;;;;3.35;1.88;;;7.50;99.90;;;;;;5072288;28;20025;-69
2022/01/29 11:45:44;;;;;;;2.60;1.77;;;7.50;99.90;;;;;;5073364;28;20020;-69
2022/01/29 11:48:25;;;;;;;2.97;1.83;;;7.50;99.90;;;;;;5089242;28;20469;-71
2022/01/29 11:50:52;;;;;;;3.05;1.80;;;7.50;99.90;;;;;;5075200;28;20039;-69
2022/01/29 11:53:19;;;;;;;2.65;1.85;;;7.30;99.90;;;;;;5086813;28;20031;-69
2022/01/29 11:55:46;;;;;;;2.85;1.85;;;7.30;99.90;;;;;;5089638;28;20028;-69
2022/01/29 11:58:32;;;;;;;3.40;1.65;;;7.40;99.90;;;;;;5079298;28;20409;-70
2022/01/29 12:01:00;;;;;;;4.25;1.80;;;7.40;99.90;;;;;;5077239;28;20070;-69
2022/01/29 12:03:40;;;;;;;2.50;1.65;;;7.40;99.90;;;;;;5086261;28;20028;-71
2022/01/29 12:06:11;;;;;;;2.03;1.60;;;7.30;99.90;;;;;;5071099;28;20038;-70
2022/01/29 12:09:09;;;;;;;3.13;2.13;;;7.40;99.90;;;;;;5087437;28;20110;-69
2022/01/29 12:11:41;;;;;;;4.35;1.63;;;7.50;99.90;;;;;;5073921;28;20031;-70
2022/01/29 12:14:12;;;;;;;2.03;1.52;;;7.40;99.90;;;;;;5082551;28;20024;-69
2022/01/29 12:16:58;;;;;;;3.25;1.63;;;7.40;99.90;;;;;;5073388;28;20021;-70
2022/01/29 12:19:40;;;;;;;3.42;1.90;;;7.40;99.90;;;;;;5059868;28;20016;-70
2022/01/29 12:22:24;;;;;;;3.90;2.20;;;7.40;99.90;;;;;;5074331;28;20154;-69
2022/01/29 12:25:01;;;;;;;2.38;1.70;;;7.40;99.90;;;;;;5081156;28;20032;-71
2022/01/29 12:27:50;;;;;;;1.55;1.40;;;7.50;99.90;;;;;;5086042;28;20024;-70
2022/01/29 12:30:21;;;;;;;4.00;1.75;;;7.50;99.90;;;;;;5073129;28;20048;-70
2022/01/29 12:32:58;;;;;;;4.18;1.73;;;7.50;99.90;;;;;;5088094;28;20461;-71
2022/01/29 12:35:46;;;;;;;6.22;2.40;;;7.50;99.90;;;;;;5071499;28;20477;-70
2022/01/29 12:38:14;;;;;;;2.72;1.60;;;7.50;99.90;;;;;;5081515;28;20051;-70
2022/01/29 12:40:49;;;;;;;3.53;2.28;;;7.60;99.90;;;;;;5076605;28;20477;-70
2022/01/29 12:43:22;;;;;;;9.13;2.05;;;7.50;99.90;;;;;;5065934;28;20025;-71
2022/01/29 12:45:49;;;;;;;3.03;2.10;;;7.50;99.90;;;;;;5068787;28;20035;-71
2022/01/29 12:48:15;;;;;;;5.35;1.83;;;7.60;99.90;;;;;;5069473;28;20025;-71
2022/01/29 12:50:43;;;;;;;2.33;1.52;;;7.60;99.90;;;;;;5067183;28;20073;-71
2022/01/29 12:53:12;;;;;;;3.83;1.50;;;7.50;99.90;;;;;;5069143;28;20032;-71
2022/01/29 12:55:38;;;;;;;3.47;1.70;;;7.50;99.90;;;;;;5071851;28;20389;-71
2022/01/29 12:58:04;;;;;;;2.33;1.40;;;7.50;99.90;;;;;;5071204;28;20099;-71
2022/01/29 13:00:30;;;;;;;4.30;2.10;;;7.50;99.90;;;;;;5071775;28;20028;-71
2022/01/29 13:03:09;;;;;;;2.50;1.30;;;7.50;99.90;;;;;;5072803;28;20075;-70
2022/01/29 13:05:42;;;;;;;1.80;1.38;;;7.50;99.90;;;;;;5074686;28;20024;-70
2022/01/29 13:08:09;;;;;;;3.80;1.60;;;7.40;99.90;;;;;;5069709;28;20044;-70